Terminal Aerodrome Forecast
Issued by NWS Twin Cities, MN

Home | Current Version | Previous Version | Graphics & Text | Print | Product List | Glossary On
Versions: 1 2 3 4 5 6 7 8 9 10 11 12 13 14
137
FTUS43 KMPX 240520
TAFEAU
TAF
KEAU 240520Z 2406/2506 VRB03KT P6SM SKC
     FM241600 36011KT P6SM SCT070
     FM250100 36004KT P6SM SKC=

USA.gov is the U.S. government's official web portal to all federal, state and local government web resources and services.